Time;durP1;ratioP1;P1;durP2;ratioP2;P2;SDS_P1;SDS_P2;PMS_P1;PMS_P2;Temp;Humidity;BMP_temperature;BMP_pressure;BME280_temperature;BME280_humidity;BME280_pressure;Samples;Min_cycle;Max_cycle;Signal;HPM_P1;HPM_P2
2022/05/07 00:01:54;;;;;;;;;8.75;7.00;;;;;18.05;48.14;102212.56;5062345;28;45197;-67
2022/05/07 00:04:20;;;;;;;;;6.50;6.50;;;;;18.03;48.12;102209.16;5061857;28;45921;-67
2022/05/07 00:06:45;;;;;;;;;8.25;5.50;;;;;18.02;48.36;102209.25;5061869;28;45246;-66
2022/05/07 00:09:10;;;;;;;;;5.25;5.25;;;;;18.01;48.63;102207.53;5061959;28;45220;-67
2022/05/07 00:11:36;;;;;;;;;7.00;4.75;;;;;18.01;48.46;102208.41;5060372;28;45544;-67
2022/05/07 00:14:01;;;;;;;;;6.75;6.00;;;;;17.99;48.69;102204.09;5061935;28;46107;-68
2022/05/07 00:19:11;;;;;;;;;5.75;5.00;;;;;17.90;48.86;102202.91;5061831;28;45209;-67
2022/05/07 00:21:36;;;;;;;;;8.50;7.50;;;;;17.86;49.25;102204.09;5061901;28;45233;-68
2022/05/07 00:24:02;;;;;;;;;10.25;7.75;;;;;17.77;49.41;102202.91;5061695;28;45219;-68
2022/05/07 00:26:29;;;;;;;;;8.00;8.00;;;;;17.72;49.63;102202.34;5061373;28;45365;-68
2022/05/07 00:28:54;;;;;;;;;8.50;8.25;;;;;17.67;49.80;102200.88;5061634;28;45380;-68
2022/05/07 00:31:20;;;;;;;;;9.75;7.50;;;;;17.62;50.00;102200.38;5061799;28;45636;-68
2022/05/07 00:33:46;;;;;;;;;9.25;9.25;;;;;17.63;50.08;102196.75;5061349;28;46265;-69
2022/05/07 00:36:11;;;;;;;;;7.50;5.75;;;;;17.61;50.24;102193.28;5060167;28;45331;-68
2022/05/07 00:38:37;;;;;;;;;9.75;7.25;;;;;17.58;50.16;102186.38;5061770;28;45326;-67
2022/05/07 00:41:03;;;;;;;;;8.75;7.75;;;;;17.59;50.43;102190.72;5061305;28;45516;-68
2022/05/07 00:43:40;;;;;;;;;9.25;7.25;;;;;17.56;50.36;102193.63;5061489;28;45472;-68
2022/05/07 00:46:06;;;;;;;;;8.50;7.50;;;;;17.52;50.47;102192.09;5060016;28;45276;-68
2022/05/07 00:48:33;;;;;;;;;7.75;6.25;;;;;17.47;50.61;102195.06;5061319;28;45177;-68
2022/05/07 00:53:45;;;;;;;;;9.50;8.50;;;;;17.37;51.14;102185.09;5061150;28;45512;-68
2022/05/07 00:56:10;;;;;;;;;12.50;7.50;;;;;17.31;51.32;102186.38;5060758;28;45464;-68
2022/05/07 00:58:36;;;;;;;;;9.00;9.00;;;;;17.27;51.21;102188.34;5061113;28;45352;-68
2022/05/07 01:01:02;;;;;;;;;11.25;8.00;;;;;17.25;51.44;102179.63;5061749;28;45338;-68
2022/05/07 01:03:27;;;;;;;;;10.50;8.75;;;;;17.21;51.62;102180.75;5060875;28;45893;-68
2022/05/07 01:05:54;;;;;;;;;8.00;6.75;;;;;17.19;51.73;102177.34;5061063;28;45257;-68
2022/05/07 01:08:25;;;;;;;;;9.75;8.75;;;;;17.13;51.72;102177.72;5059772;28;45319;-68
2022/05/07 01:10:51;;;;;;;;;9.00;8.00;;;;;17.10;51.89;102179.75;5060760;28;45449;-68
2022/05/07 01:13:17;;;;;;;;;10.75;8.75;;;;;17.07;51.96;102170.16;5060944;28;46243;-68
2022/05/07 01:15:47;;;;;;;;;9.25;8.75;;;;;17.03;52.07;102174.81;5060888;28;45247;-68
2022/05/07 01:18:13;;;;;;;;;10.25;10.25;;;;;17.00;52.04;102177.66;5061249;28;45327;-68
2022/05/07 01:20:39;;;;;;;;;11.00;9.75;;;;;16.98;52.16;102166.28;5060925;28;45280;-68
2022/05/07 01:23:06;;;;;;;;;11.00;9.25;;;;;16.97;52.15;102175.19;5063630;28;45328;-68
2022/05/07 01:25:32;;;;;;;;;13.00;9.25;;;;;16.94;52.25;102174.53;5064088;28;45275;-68
2022/05/07 01:27:58;;;;;;;;;9.25;8.00;;;;;16.92;52.32;102182.63;5064625;28;45307;-68
2022/05/07 01:30:24;;;;;;;;;8.75;8.75;;;;;16.91;52.23;102175.59;5064450;28;45405;-69
2022/05/07 01:32:49;;;;;;;;;12.75;11.00;;;;;16.93;52.48;102170.16;5064282;28;45169;-68
2022/05/07 01:35:15;;;;;;;;;8.00;8.00;;;;;16.92;52.42;102174.63;5064179;28;45302;-68
2022/05/07 01:37:41;;;;;;;;;10.50;8.25;;;;;16.91;52.33;102175.59;5064472;28;45362;-68
2022/05/07 01:40:07;;;;;;;;;13.25;10.75;;;;;16.90;52.47;102173.00;5064435;28;45560;-68
2022/05/07 01:42:33;;;;;;;;;13.50;7.50;;;;;16.87;52.48;102174.06;5064071;28;47420;-68
2022/05/07 01:44:58;;;;;;;;;11.25;9.00;;;;;16.83;52.35;102180.53;5064138;28;45384;-68
2022/05/07 01:50:08;;;;;;;;;11.50;10.50;;;;;16.77;52.94;102178.25;5064250;28;45329;-69
2022/05/07 01:52:34;;;;;;;;;12.75;11.25;;;;;16.78;52.84;102179.97;5063934;28;45375;-68
2022/05/07 01:55:00;;;;;;;;;11.50;8.00;;;;;16.76;52.67;102173.03;5063613;28;45334;-68
2022/05/07 01:57:25;;;;;;;;;13.25;10.50;;;;;16.71;52.66;102176.81;5063900;28;45252;-68
2022/05/07 01:59:51;;;;;;;;;14.50;9.25;;;;;16.66;53.13;102162.06;5063137;28;45472;-68
2022/05/07 02:02:16;;;;;;;;;12.50;9.00;;;;;16.65;52.87;102163.00;5063833;28;46105;-68
2022/05/07 02:04:42;;;;;;;;;10.00;9.50;;;;;16.62;53.11;102165.88;5064064;28;45275;-68
2022/05/07 02:07:07;;;;;;;;;5.75;5.50;;;;;16.59;52.93;102174.91;5064061;28;45298;-67
2022/05/07 02:09:35;;;;;;;;;9.00;8.25;;;;;16.51;53.19;102165.66;5063745;28;45390;-69
2022/05/07 02:12:01;;;;;;;;;8.75;8.00;;;;;16.48;53.36;102164.91;5062134;28;47544;-68
2022/05/07 02:14:26;;;;;;;;;12.00;7.25;;;;;16.44;53.33;102166.06;5063650;28;45216;-68
2022/05/07 02:16:52;;;;;;;;;11.25;9.25;;;;;16.43;53.35;102167.00;5063974;28;45220;-68
2022/05/07 02:19:17;;;;;;;;;11.00;11.00;;;;;16.42;53.37;102165.28;5063727;28;45298;-68
2022/05/07 02:21:43;;;;;;;;;7.25;6.25;;;;;16.44;53.64;102163.41;5063723;28;45290;-68
2022/05/07 02:24:08;;;;;;;;;11.00;11.00;;;;;16.41;53.55;102168.88;5063499;28;45382;-68
2022/05/07 02:26:34;;;;;;;;;12.00;9.00;;;;;16.37;53.77;102167.38;5062013;28;45291;-68
2022/05/07 02:28:59;;;;;;;;;11.50;9.75;;;;;16.34;54.03;102164.03;5063711;28;45291;-68
2022/05/07 02:31:25;;;;;;;;;12.00;9.50;;;;;16.33;53.95;102168.50;5063387;28;45367;-68
2022/05/07 02:33:51;;;;;;;;;9.25;9.25;;;;;16.29;54.21;102164.34;5062221;28;45331;-68
2022/05/07 02:36:17;;;;;;;;;10.25;8.50;;;;;16.26;54.06;102168.97;5063600;28;45272;-68
2022/05/07 02:38:42;;;;;;;;;11.25;11.00;;;;;16.21;54.35;102163.09;5063394;28;45580;-68
2022/05/07 02:43:52;;;;;;;;;10.00;9.00;;;;;16.13;54.53;102163.56;5063254;28;45359;-68
2022/05/07 02:46:17;;;;;;;;;9.50;9.50;;;;;16.08;54.69;102163.81;5063703;28;45265;-68
2022/05/07 02:48:45;;;;;;;;;9.50;9.50;;;;;16.04;55.04;102164.97;5063084;28;45538;-68
2022/05/07 02:51:11;;;;;;;;;10.25;9.00;;;;;16.01;55.20;102169.59;5063285;28;45918;-68
2022/05/07 02:53:37;;;;;;;;;14.75;11.50;;;;;15.98;54.95;102169.78;5062966;28;45451;-68
2022/05/07 02:56:03;;;;;;;;;12.00;11.75;;;;;15.96;55.27;102163.66;5062890;28;45471;-68
2022/05/07 02:58:29;;;;;;;;;10.25;10.00;;;;;15.95;55.50;102168.13;5063025;28;45476;-68
2022/05/07 03:00:55;;;;;;;;;12.00;10.75;;;;;15.93;55.75;102167.38;5063548;28;45421;-68
2022/05/07 03:03:21;;;;;;;;;16.75;13.50;;;;;15.90;55.78;102162.25;5062951;28;45576;-68
2022/05/07 03:05:46;;;;;;;;;10.75;9.25;;;;;15.84;55.60;102168.78;5063225;28;45457;-68
2022/05/07 03:08:12;;;;;;;;;14.75;10.25;;;;;15.80;55.74;102163.72;5062906;28;45508;-68
2022/05/07 03:10:37;;;;;;;;;10.00;10.00;;;;;15.78;56.14;102162.97;5062435;28;46155;-68
2022/05/07 03:13:03;;;;;;;;;13.00;12.50;;;;;15.77;56.30;102162.09;5062788;28;45382;-68
2022/05/07 03:15:28;;;;;;;;;10.75;10.00;;;;;15.78;55.99;102160.31;5062898;28;45410;-68
2022/05/07 03:17:54;;;;;;;;;14.25;11.25;;;;;15.76;56.34;102163.06;5062811;28;45216;-68
2022/05/07 03:20:19;;;;;;;;;12.25;9.25;;;;;15.76;56.59;102154.22;5062576;28;46118;-69
2022/05/07 03:22:45;;;;;;;;;13.25;10.50;;;;;15.75;56.53;102161.34;5062751;28;45248;-68
2022/05/07 03:25:11;;;;;;;;;12.00;9.75;;;;;15.73;56.38;102149.97;5062790;28;45358;-69
2022/05/07 03:27:37;;;;;;;;;13.00;11.50;;;;;15.70;56.59;102158.09;5062600;28;45268;-68
2022/05/07 03:30:04;;;;;;;;;15.50;12.75;;;;;15.68;56.61;102160.00;5062386;28;45250;-68
2022/05/07 03:32:30;;;;;;;;;10.50;10.50;;;;;15.66;56.90;102156.56;5062520;28;45395;-68
2022/05/07 03:34:57;;;;;;;;;11.25;9.50;;;;;15.67;56.96;102155.63;5062477;28;45273;-68
2022/05/07 03:37:23;;;;;;;;;13.00;9.50;;;;;15.69;56.89;102152.88;5062491;28;45395;-68
2022/05/07 03:39:50;;;;;;;;;16.25;10.00;;;;;15.70;56.78;102152.78;5062095;28;45214;-68
2022/05/07 03:42:16;;;;;;;;;12.00;10.50;;;;;15.70;57.16;102151.91;5062035;28;45250;-68
2022/05/07 03:44:42;;;;;;;;;13.25;11.00;;;;;15.65;57.24;102157.53;5061010;28;45280;-68
2022/05/07 03:47:07;;;;;;;;;10.75;10.50;;;;;15.63;57.26;102159.38;5062236;28;45157;-68
2022/05/07 03:49:33;;;;;;;;;12.25;10.75;;;;;15.60;57.44;102155.09;5062188;28;45571;-68
2022/05/07 03:55:03;;;;;;;;;10.00;9.75;;;;;15.50;57.60;102142.44;5019620;28;45257;-67
2022/05/07 03:57:29;;;;;;;;;16.50;12.25;;;;;15.50;57.70;102151.25;5019851;28;45341;-68
2022/05/07 03:59:55;;;;;;;;;11.50;10.00;;;;;15.50;58.21;102148.59;5039386;28;45516;-68
2022/05/07 04:02:21;;;;;;;;;12.50;10.75;;;;;15.50;58.03;102151.25;5062015;28;45346;-68
2022/05/07 04:04:47;;;;;;;;;13.50;13.50;;;;;15.49;57.96;102151.34;5061939;28;45330;-68
2022/05/07 04:07:14;;;;;;;;;13.00;12.25;;;;;15.49;58.20;102154.00;5062187;28;45498;-68
2022/05/07 04:09:40;;;;;;;;;12.25;9.75;;;;;15.47;58.46;102145.25;5061837;28;45220;-68
2022/05/07 04:12:06;;;;;;;;;14.50;12.50;;;;;15.48;58.52;102141.66;5061535;28;45390;-68
2022/05/07 04:14:31;;;;;;;;;12.50;12.00;;;;;15.50;58.57;102137.13;5061849;28;45292;-68
2022/05/07 04:16:57;;;;;;;;;14.50;13.25;;;;;15.52;58.37;102143.19;5061902;28;45240;-67
2022/05/07 04:19:22;;;;;;;;;10.25;10.25;;;;;15.48;58.40;102142.53;5061588;28;45342;-67
2022/05/07 04:21:48;;;;;;;;;14.50;13.50;;;;;15.48;58.56;102142.53;5061690;28;45234;-68
2022/05/07 04:24:13;;;;;;;;;17.00;13.75;;;;;15.45;58.72;102137.38;5061996;28;45303;-68
2022/05/07 04:26:39;;;;;;;;;14.75;13.25;;;;;15.41;58.55;102140.31;5061481;28;45709;-69
2022/05/07 04:29:04;;;;;;;;;18.50;14.25;;;;;15.36;58.99;102154.69;5061477;28;45430;-69
2022/05/07 04:31:30;;;;;;;;;20.75;12.50;;;;;15.33;58.77;102141.59;5061555;28;45335;-69
2022/05/07 04:33:55;;;;;;;;;16.75;12.50;;;;;15.32;58.99;102152.28;5061831;28;45176;-69
2022/05/07 04:36:21;;;;;;;;;15.75;12.25;;;;;15.31;59.07;102150.56;5061660;28;45528;-69
2022/05/07 04:38:46;;;;;;;;;9.25;7.00;;;;;15.27;59.04;102149.91;5061433;28;45371;-69
2022/05/07 04:41:12;;;;;;;;;22.00;15.00;;;;;15.27;59.25;102149.91;5061220;28;45259;-69
2022/05/07 04:43:37;;;;;;;;;18.25;14.50;;;;;15.27;59.16;102149.91;5061526;28;45484;-69
2022/05/07 04:46:02;;;;;;;;;17.25;14.00;;;;;15.27;59.42;102159.66;5061597;28;45326;-69
2022/05/07 04:48:28;;;;;;;;;15.00;12.75;;;;;15.26;59.35;102152.66;5061142;28;45400;-69
2022/05/07 04:50:54;;;;;;;;;18.00;15.75;;;;;15.27;59.40;102155.22;5061331;28;45224;-69
2022/05/07 04:53:19;;;;;;;;;15.75;13.50;;;;;15.23;59.61;102153.66;5061161;28;45307;-69
2022/05/07 04:55:45;;;;;;;;;20.75;13.50;;;;;15.23;59.69;102155.47;5061006;28;45224;-69
2022/05/07 04:58:10;;;;;;;;;19.00;18.25;;;;;15.24;59.62;102149.22;5060451;28;46027;-69
2022/05/07 05:00:36;;;;;;;;;20.25;15.00;;;;;15.23;59.74;102148.34;5061786;28;45153;-69
2022/05/07 05:03:01;;;;;;;;;14.00;12.50;;;;;15.18;59.75;102139.81;5061252;28;45398;-70
2022/05/07 05:05:27;;;;;;;;;29.25;19.25;;;;;15.16;59.96;102144.31;5061346;28;45422;-69
2022/05/07 05:07:52;;;;;;;;;18.50;15.75;;;;;15.15;59.81;102147.06;5060866;28;45238;-69
2022/05/07 05:10:18;;;;;;;;;17.75;13.25;;;;;15.11;60.09;102149.06;5060684;28;45229;-69
2022/05/07 05:12:44;;;;;;;;;19.25;17.00;;;;;15.09;60.10;102145.63;5061176;28;45315;-69
2022/05/07 05:15:10;;;;;;;;;22.25;17.75;;;;;15.07;60.21;102140.41;5061084;28;45461;-69
2022/05/07 05:17:37;;;;;;;;;21.00;15.25;;;;;15.03;60.32;102141.53;5060786;28;45418;-69
2022/05/07 05:20:04;;;;;;;;;23.75;21.75;;;;;15.03;60.53;102143.31;5060789;28;45431;-69
2022/05/07 05:22:30;;;;;;;;;21.75;16.50;;;;;15.01;60.49;102155.81;5061089;28;45165;-68
2022/05/07 05:24:56;;;;;;;;;17.75;13.25;;;;;15.01;60.78;102150.53;5060930;28;45291;-69
2022/05/07 05:27:21;;;;;;;;;20.25;17.75;;;;;15.05;60.58;102134.31;5060407;28;45365;-69
2022/05/07 05:29:47;;;;;;;;;24.50;19.75;;;;;15.12;60.78;102134.84;5060747;28;45170;-69
2022/05/07 05:32:18;;;;;;;;;18.75;18.25;;;;;15.13;60.53;102139.19;5060866;28;45387;-69
2022/05/07 05:34:48;;;;;;;;;23.50;19.25;;;;;15.10;60.84;102139.38;5060840;28;45245;-69
2022/05/07 05:37:15;;;;;;;;;22.25;18.00;;;;;15.08;60.69;102131.47;5059337;28;47799;-69
2022/05/07 05:39:41;;;;;;;;;20.25;17.25;;;;;15.09;60.14;102142.97;5060810;28;45353;-69
2022/05/07 05:42:08;;;;;;;;;19.25;16.25;;;;;15.08;61.06;102146.56;5060379;28;45405;-68
2022/05/07 05:44:40;;;;;;;;;22.00;20.25;;;;;15.07;60.95;102147.50;5060841;28;45295;-69
2022/05/07 05:47:07;;;;;;;;;18.25;17.75;;;;;15.07;60.86;102153.66;5060489;28;45658;-69
2022/05/07 05:49:35;;;;;;;;;22.50;16.25;;;;;15.09;61.26;102156.25;5060438;28;45319;-69
2022/05/07 05:52:02;;;;;;;;;10.00;4.00;;;;;15.08;60.93;102155.38;5060391;28;45409;-69
2022/05/07 05:54:29;;;;;;;;;21.75;15.75;;;;;15.07;61.51;102158.97;5060675;28;45339;-69
2022/05/07 05:56:54;;;;;;;;;17.75;16.50;;;;;15.11;61.34;102159.66;5059943;28;45448;-69
2022/05/07 05:59:20;;;;;;;;;23.50;17.25;;;;;15.15;61.08;102158.53;5060450;28;45298;-69
2022/05/07 06:01:45;;;;;;;;;16.75;16.00;;;;;15.23;61.45;102151.00;5060666;28;45332;-69
2022/05/07 06:04:11;;;;;;;;;20.00;17.75;;;;;15.27;61.21;102152.56;5060565;28;45496;-69
2022/05/07 06:06:36;;;;;;;;;20.50;17.75;;;;;15.32;60.98;102153.16;5060176;28;45247;-69
2022/05/07 06:09:02;;;;;;;;;25.00;18.75;;;;;15.31;61.30;102153.22;5062593;28;45265;-69
2022/05/07 06:11:28;;;;;;;;;19.00;17.25;;;;;15.32;60.89;102145.19;5063527;28;45446;-69
2022/05/07 06:13:54;;;;;;;;;19.25;18.25;;;;;15.35;61.08;102139.72;5063911;28;45259;-69
2022/05/07 06:16:19;;;;;;;;;24.00;20.00;;;;;15.40;61.14;102151.84;5063454;28;46423;-69
2022/05/07 06:18:45;;;;;;;;;21.00;19.25;;;;;15.41;60.97;102151.78;5063605;28;45211;-69
2022/05/07 06:21:10;;;;;;;;;25.75;22.75;;;;;15.41;60.90;102158.91;5063799;28;45308;-69
2022/05/07 06:23:36;;;;;;;;;19.25;17.00;;;;;15.40;61.04;102163.31;5063779;28;45263;-68
2022/05/07 06:28:45;;;;;;;;;20.25;17.50;;;;;15.39;61.31;102166.06;5063483;28;45223;-69
2022/05/07 06:31:11;;;;;;;;;23.50;18.50;;;;;15.39;61.22;102176.69;5063646;28;45187;-68
2022/05/07 06:33:40;;;;;;;;;26.25;18.00;;;;;15.38;61.32;102185.59;5063734;28;45359;-68
2022/05/07 06:36:07;;;;;;;;;23.75;19.25;;;;;15.41;61.34;102185.44;5063313;28;45397;-68
2022/05/07 06:38:34;;;;;;;;;24.75;19.25;;;;;15.42;61.59;102189.81;5063221;28;45322;-68
2022/05/07 06:41:03;;;;;;;;;20.00;15.00;;;;;15.45;61.42;102184.31;5063197;28;45294;-68
2022/05/07 06:43:30;;;;;;;;;21.50;18.75;;;;;15.44;61.39;102194.09;5063408;28;45406;-68
2022/05/07 06:45:56;;;;;;;;;20.00;17.50;;;;;15.47;61.45;102199.22;5063277;28;45981;-68
2022/05/07 06:48:22;;;;;;;;;28.75;20.00;;;;;15.47;61.18;102201.00;5063033;28;45314;-68
2022/05/07 06:50:47;;;;;;;;;25.75;22.00;;;;;15.43;61.32;102195.03;5063349;28;45362;-68
2022/05/07 06:53:13;;;;;;;;;22.75;18.50;;;;;15.44;61.45;102193.22;5063094;28;45452;-68
2022/05/07 06:55:54;;;;;;;;;24.00;21.25;;;;;15.45;61.12;102198.44;5062651;28;45993;-69
2022/05/07 06:58:23;;;;;;;;;22.50;21.50;;;;;15.45;61.30;102201.09;5062998;28;45367;-68
2022/05/07 07:00:49;;;;;;;;;23.75;21.75;;;;;15.47;61.42;102204.53;5063685;28;45257;-68
2022/05/07 07:03:14;;;;;;;;;25.50;22.00;;;;;15.55;61.50;102196.13;5063040;28;45232;-68
2022/05/07 07:05:40;;;;;;;;;17.50;17.50;;;;;15.61;61.57;102203.78;5062874;28;45288;-68
2022/05/07 07:08:06;;;;;;;;;24.00;18.50;;;;;15.62;61.31;102201.03;5062679;28;45198;-68
2022/05/07 07:10:31;;;;;;;;;18.75;16.75;;;;;15.65;61.20;102189.41;5062719;28;45284;-68
2022/05/07 07:12:56;;;;;;;;;15.00;13.00;;;;;15.73;61.13;102196.94;5062947;28;45476;-68
2022/05/07 07:15:23;;;;;;;;;24.75;20.50;;;;;15.79;61.29;102196.56;5062697;28;45246;-68
2022/05/07 07:17:49;;;;;;;;;25.00;18.00;;;;;15.83;61.31;102195.44;5062767;28;45376;-68
2022/05/07 07:20:15;;;;;;;;;20.00;16.75;;;;;15.90;60.99;102187.03;5062219;28;45358;-68
2022/05/07 07:22:41;;;;;;;;;19.00;16.25;;;;;15.95;60.63;102193.84;5062801;28;45318;-67
2022/05/07 07:25:07;;;;;;;;;22.50;18.50;;;;;15.97;60.95;102194.66;5062365;28;46290;-68
2022/05/07 07:27:34;;;;;;;;;26.00;21.00;;;;;16.02;60.91;102197.88;5062537;28;45469;-68
2022/05/07 07:29:59;;;;;;;;;21.50;16.75;;;;;16.06;60.87;102194.09;5062747;28;45271;-68
2022/05/07 07:32:25;;;;;;;;;19.00;15.75;;;;;16.13;60.46;102191.00;5062565;28;45478;-68
2022/05/07 07:34:51;;;;;;;;;21.00;18.50;;;;;16.09;60.41;102192.09;5062656;28;45226;-68
2022/05/07 07:37:17;;;;;;;;;19.00;16.50;;;;;16.10;60.46;102201.78;5062327;28;45415;-68
2022/05/07 07:39:42;;;;;;;;;21.75;21.25;;;;;16.12;60.76;102199.91;5062455;28;45277;-68
2022/05/07 07:42:08;;;;;;;;;17.00;15.25;;;;;16.14;60.55;102197.16;5062135;28;45224;-68
2022/05/07 07:44:33;;;;;;;;;25.25;18.75;;;;;16.14;60.53;102197.16;5062330;28;45245;-68
2022/05/07 07:49:43;;;;;;;;;17.75;13.00;;;;;16.23;60.53;102201.06;5062392;28;45342;-68
2022/05/07 07:52:09;;;;;;;;;21.75;19.25;;;;;16.28;60.28;102197.19;5062209;28;45381;-68
2022/05/07 07:54:34;;;;;;;;;21.00;18.75;;;;;16.35;60.31;102192.34;5061846;28;46259;-68
2022/05/07 07:57:02;;;;;;;;;18.25;16.75;;;;;16.38;60.50;102192.16;5061629;28;45460;-68
2022/05/07 07:59:29;;;;;;;;;21.00;17.75;;;;;16.41;60.48;102189.31;5062304;28;45299;-68
2022/05/07 08:01:56;;;;;;;;;16.25;13.00;;;;;16.48;60.06;102194.16;5062335;28;45157;-68
2022/05/07 08:04:22;;;;;;;;;17.00;15.25;;;;;16.51;60.19;102197.59;5061860;28;46147;-69
2022/05/07 08:11:40;;;;;;;;;21.75;18.50;;;;;16.52;59.85;102194.00;5062080;28;45214;-68
2022/05/07 08:12:18;;;;;;;;;21.00;18.00;;;;;16.54;60.03;102182.31;5061825;28;45235;-69
2022/05/07 08:14:43;;;;;;;;;17.75;15.75;;;;;16.62;60.08;102185.34;5061516;28;46213;-68
2022/05/07 08:17:08;;;;;;;;;16.25;14.50;;;;;16.69;59.82;102180.53;5061935;28;45525;-68
2022/05/07 08:19:34;;;;;;;;;18.25;15.25;;;;;16.77;59.74;102188.91;5061750;28;45322;-69
2022/05/07 08:22:00;;;;;;;;;22.00;19.75;;;;;16.82;59.55;102180.63;5061945;28;45336;-68
2022/05/07 08:24:26;;;;;;;;;22.00;19.75;;;;;16.83;59.39;102185.03;5061417;28;45947;-68
2022/05/07 08:26:51;;;;;;;;;21.00;19.50;;;;;16.88;59.53;102180.25;5061313;28;45402;-68
2022/05/07 08:29:17;;;;;;;;;14.75;14.25;;;;;16.92;59.57;102190.63;5061513;28;45248;-68
2022/05/07 08:31:42;;;;;;;;;19.50;17.50;;;;;16.99;59.35;102183.94;5060667;28;45449;-68
2022/05/07 08:34:08;;;;;;;;;19.75;16.75;;;;;17.08;59.44;102182.50;5061362;28;45442;-68
2022/05/07 08:36:33;;;;;;;;;17.75;15.25;;;;;17.17;58.96;102179.25;5060114;28;45350;-67
2022/05/07 08:38:59;;;;;;;;;14.50;13.75;;;;;17.24;59.04;102185.06;5061433;28;45280;-68
2022/05/07 08:41:25;;;;;;;;;14.50;14.00;;;;;17.32;58.89;102188.06;5061424;28;45211;-68
2022/05/07 08:43:50;;;;;;;;;13.75;12.50;;;;;17.43;58.59;102184.69;5061081;28;45319;-68
2022/05/07 08:46:19;;;;;;;;;22.00;21.25;;;;;17.54;58.37;102182.22;5061280;28;45282;-68
2022/05/07 08:48:46;;;;;;;;;15.25;15.25;;;;;17.62;58.30;102179.91;5061047;28;45273;-68
2022/05/07 08:51:16;;;;;;;;;18.75;16.00;;;;;17.73;58.42;102188.06;5061553;28;45514;-68
2022/05/07 08:53:43;;;;;;;;;20.75;15.50;;;;;17.81;57.91;102180.41;5060778;28;45429;-68
2022/05/07 08:56:10;;;;;;;;;14.25;12.00;;;;;17.89;57.74;102181.69;5060722;28;45224;-68
2022/05/07 08:58:35;;;;;;;;;16.00;14.25;;;;;17.92;57.63;102195.66;5061027;28;45526;-68
2022/05/07 09:01:01;;;;;;;;;15.75;13.50;;;;;17.98;57.65;102186.41;5061606;28;45488;-69
2022/05/07 09:03:41;;;;;;;;;14.75;14.00;;;;;17.98;57.07;102186.41;5060824;28;46226;-68
2022/05/07 09:06:18;;;;;;;;;16.75;15.00;;;;;17.98;57.14;102189.06;5060883;28;45283;-68
2022/05/07 09:08:46;;;;;;;;;16.25;14.25;;;;;18.00;57.26;102184.47;5060709;28;45176;-68
2022/05/07 09:11:12;;;;;;;;;18.75;15.50;;;;;18.05;57.16;102191.22;5060861;28;45305;-67
2022/05/07 09:13:38;;;;;;;;;16.00;13.25;;;;;18.10;57.05;102180.25;5060975;28;45434;-68
2022/05/07 09:16:04;;;;;;;;;17.50;13.50;;;;;18.14;57.03;102185.25;5060782;28;45291;-68
2022/05/07 09:18:29;;;;;;;;;16.75;12.25;;;;;18.16;57.26;102186.97;5060958;28;45157;-69
2022/05/07 09:21:25;;;;;;;;;18.50;15.00;;;;;18.19;57.16;102170.78;5060995;28;45453;-68
2022/05/07 09:24:06;;;;;;;;;15.50;11.75;;;;;18.24;56.92;102171.28;5060781;28;45755;-68
2022/05/07 09:26:43;;;;;;;;;15.25;13.00;;;;;18.31;56.99;102173.44;5060211;28;45343;-68
2022/05/07 09:29:10;;;;;;;;;13.25;12.00;;;;;18.49;56.60;102170.47;5060671;28;45354;-69
2022/05/07 09:31:37;;;;;;;;;12.00;11.00;;;;;18.63;56.48;102170.34;5061062;28;45262;-69
2022/05/07 09:37:11;;;;;;;;;17.75;12.50;;;;;18.75;55.64;102166.00;5060621;28;45406;-67
2022/05/07 09:39:37;;;;;;;;;13.25;11.00;;;;;18.74;56.21;102166.97;5060980;28;45509;-68
2022/05/07 09:42:03;;;;;;;;;12.25;12.25;;;;;18.78;56.18;102158.59;5060416;28;45246;-68
2022/05/07 09:44:29;;;;;;;;;17.25;13.75;;;;;18.89;56.24;102161.38;5063594;28;45334;-69
2022/05/07 09:46:56;;;;;;;;;14.75;13.75;;;;;19.02;55.73;102165.81;5064091;28;45225;-69
2022/05/07 09:49:25;;;;;;;;;16.00;13.25;;;;;19.07;55.67;102167.19;5064348;28;45336;-69
2022/05/07 09:51:52;;;;;;;;;15.00;14.25;;;;;19.19;55.67;102166.28;5063925;28;45556;-67
2022/05/07 09:59:51;;;;;;;;;15.75;12.25;;;;;19.49;54.87;102155.16;5063526;28;45469;-68
2022/05/07 10:02:59;;;;;;;;;16.00;12.00;;;;;19.62;54.73;102152.47;5064298;28;45541;-68
2022/05/07 10:05:49;;;;;;;;;11.50;11.00;;;;;19.72;54.34;102147.28;5063723;28;46261;-68
2022/05/07 10:08:33;;;;;;;;;14.50;12.50;;;;;19.80;53.86;102143.06;5062256;28;45278;-68
2022/05/07 10:11:00;;;;;;;;;13.00;11.75;;;;;19.83;53.67;102149.13;5063416;28;45257;-68
2022/05/07 10:13:26;;;;;;;;;14.50;12.75;;;;;19.83;53.98;102149.13;5064108;28;45173;-69
2022/05/07 10:16:00;;;;;;;;;13.75;12.00;;;;;19.79;53.84;102151.22;5063447;28;45559;-67
2022/05/07 10:18:41;;;;;;;;;12.00;9.50;;;;;19.83;53.69;102151.81;5063772;28;45244;-68
2022/05/07 10:21:11;;;;;;;;;12.00;11.25;;;;;19.89;53.94;102149.53;5063535;28;45295;-68
2022/05/07 10:23:47;;;;;;;;;15.25;12.75;;;;;19.93;53.24;102152.84;5063665;28;45562;-69
2022/05/07 10:26:12;;;;;;;;;10.00;9.75;;;;;19.93;53.74;102152.84;5062870;28;46028;-68
2022/05/07 10:28:40;;;;;;;;;13.50;12.00;;;;;19.91;53.12;102152.13;5063565;28;45765;-68
2022/05/07 10:31:19;;;;;;;;;11.50;10.75;;;;;19.91;53.40;102158.31;5063370;28;45496;-68
2022/05/07 10:33:46;;;;;;;;;14.25;13.75;;;;;19.89;53.35;102154.88;5062124;28;45449;-68
2022/05/07 10:36:12;;;;;;;;;17.50;13.25;;;;;19.84;53.84;102150.88;5063335;28;45269;-68
2022/05/07 10:38:39;;;;;;;;;16.00;12.00;;;;;19.84;53.79;102149.06;5063353;28;45193;-68
2022/05/07 10:41:20;;;;;;;;;14.50;11.75;;;;;19.87;53.46;102153.31;5063086;28;45410;-68
2022/05/07 10:43:48;;;;;;;;;15.50;11.75;;;;;19.87;53.33;102156.81;5063439;28;45567;-69
2022/05/07 10:46:16;;;;;;;;;15.00;10.75;;;;;19.84;53.25;102148.19;5063242;28;45938;-67
2022/05/07 10:48:58;;;;;;;;;14.50;11.00;;;;;19.83;53.11;102146.47;5062920;28;45339;-68
2022/05/07 10:51:28;;;;;;;;;16.25;12.75;;;;;19.77;53.58;102150.47;5063440;28;45299;-68
2022/05/07 10:53:57;;;;;;;;;21.00;15.00;;;;;19.76;53.38;102149.63;5062655;28;45632;-68
2022/05/07 10:56:23;;;;;;;;;14.00;12.00;;;;;19.80;53.49;102142.22;5061966;28;45329;-68
2022/05/07 10:58:54;;;;;;;;;13.75;12.50;;;;;19.88;53.91;102144.31;5062764;28;45371;-68
2022/05/07 11:01:22;;;;;;;;;17.75;14.75;;;;;19.91;53.57;102147.63;5063337;28;45297;-67
2022/05/07 11:03:48;;;;;;;;;14.25;12.75;;;;;19.92;53.92;102143.97;5063304;28;45232;-68
2022/05/07 11:06:14;;;;;;;;;14.00;14.00;;;;;19.93;53.51;102134.97;5062788;28;46235;-68
2022/05/07 11:08:50;;;;;;;;;11.75;10.75;;;;;19.94;53.59;102142.03;5062876;28;45306;-68
2022/05/07 11:11:17;;;;;;;;;12.50;11.75;;;;;19.96;53.24;102137.41;5062518;28;45414;-68
2022/05/07 11:13:55;;;;;;;;;13.25;11.00;;;;;19.98;53.87;102132.78;5063123;28;45236;-68
2022/05/07 11:16:22;;;;;;;;;9.75;9.00;;;;;20.01;53.69;102132.56;5062703;28;45534;-68
2022/05/07 11:18:53;;;;;;;;;18.25;14.00;;;;;20.03;53.27;102137.78;5062826;28;45224;-66
2022/05/07 11:21:20;;;;;;;;;10.75;10.00;;;;;20.04;53.16;102128.78;5062237;28;45378;-68
2022/05/07 11:24:01;;;;;;;;;14.00;10.00;;;;;20.05;53.03;102133.16;5062349;28;45260;-67
2022/05/07 11:26:27;;;;;;;;;13.50;13.00;;;;;20.04;53.45;102128.78;5061630;28;45435;-67
2022/05/07 11:28:54;;;;;;;;;15.25;12.50;;;;;20.03;53.18;102122.59;5062381;28;45437;-67
2022/05/07 11:31:30;;;;;;;;;14.25;10.75;;;;;20.10;53.25;102124.78;5062367;28;45318;-67
2022/05/07 11:34:07;;;;;;;;;13.75;12.50;;;;;20.15;53.71;102120.78;5060802;28;45434;-67
2022/05/07 11:36:34;;;;;;;;;16.75;13.75;;;;;20.18;53.40;102117.03;5061994;28;45447;-68
2022/05/07 11:39:03;;;;;;;;;15.25;13.50;;;;;20.19;53.63;102116.03;5062191;28;45387;-67
2022/05/07 11:41:29;;;;;;;;;14.50;13.75;;;;;20.24;53.40;102124.56;5062010;28;45415;-67
2022/05/07 11:46:54;;;;;;;;;18.00;13.50;;;;;20.23;53.22;102115.69;5061491;28;45759;-67